createdAt,value
2019-05-23T00:00:45.892Z,0.00
2019-05-23T00:01:45.945Z,0.00
2019-05-23T00:02:46.001Z,0.00
2019-05-23T00:03:46.059Z,0.00
2019-05-23T00:04:46.111Z,0.00
2019-05-23T00:05:46.184Z,0.00
2019-05-23T00:06:46.222Z,0.00
2019-05-23T00:07:46.276Z,0.00
2019-05-23T00:08:46.333Z,0.00
2019-05-23T00:09:46.390Z,0.00
2019-05-23T00:10:46.445Z,0.00
2019-05-23T00:11:46.506Z,0.00
2019-05-23T00:12:46.553Z,0.00
2019-05-23T00:13:46.607Z,0.00
2019-05-23T00:14:46.663Z,0.00
2019-05-23T00:15:46.718Z,0.00
2019-05-23T00:16:46.774Z,0.00
2019-05-23T00:17:46.837Z,0.00
2019-05-23T00:18:46.885Z,0.00
2019-05-23T00:19:46.941Z,0.00
2019-05-23T00:20:46.995Z,0.00
2019-05-23T00:21:47.057Z,0.00
2019-05-23T00:22:47.107Z,0.00
2019-05-23T00:23:47.162Z,0.00
2019-05-23T00:24:47.218Z,0.00
2019-05-23T00:25:47.273Z,0.00
2019-05-23T00:26:47.328Z,0.00
2019-05-23T00:27:47.382Z,0.00
2019-05-23T00:28:47.439Z,0.00
2019-05-23T00:29:47.494Z,0.00
2019-05-23T00:30:47.580Z,0.00
2019-05-23T00:31:47.605Z,0.00
2019-05-23T00:32:47.685Z,0.00
2019-05-23T00:33:47.714Z,0.00
2019-05-23T00:34:47.771Z,0.00
2019-05-23T00:35:47.827Z,0.00
2019-05-23T00:36:47.881Z,0.00
2019-05-23T00:37:47.936Z,0.00
2019-05-23T00:38:47.992Z,0.00
2019-05-23T00:39:48.047Z,0.00
2019-05-23T00:40:48.106Z,0.00
2019-05-23T00:41:48.157Z,0.00
2019-05-23T00:42:48.213Z,0.00
2019-05-23T00:43:48.267Z,0.00
2019-05-23T00:44:48.323Z,0.00
2019-05-23T00:45:48.378Z,0.00
2019-05-23T00:46:48.438Z,0.00
2019-05-23T00:47:48.487Z,0.00
2019-05-23T00:48:48.543Z,0.00
2019-05-23T00:49:48.599Z,0.00
2019-05-23T00:50:48.654Z,0.00
2019-05-23T00:51:48.710Z,0.00
2019-05-23T00:52:48.766Z,0.00
2019-05-23T00:53:48.821Z,0.00
2019-05-23T00:54:48.874Z,0.00
2019-05-23T00:55:48.934Z,0.00
2019-05-23T00:56:48.985Z,0.00
2019-05-23T00:57:49.039Z,0.00
2019-05-23T00:58:49.095Z,0.00
2019-05-23T00:59:49.152Z,0.00
2019-05-23T01:00:49.204Z,0.00
2019-05-23T01:01:49.275Z,0.00
2019-05-23T01:02:49.763Z,0.00
2019-05-23T01:03:50.000Z,0.00
2019-05-23T01:04:49.425Z,0.00
2019-05-23T01:05:50.158Z,0.00
2019-05-23T01:06:49.538Z,0.00
2019-05-23T01:07:50.252Z,0.00
2019-05-23T01:08:50.328Z,0.00
2019-05-23T01:09:49.701Z,0.00
2019-05-23T01:10:49.756Z,0.00
2019-05-23T01:11:49.810Z,0.00
2019-05-23T01:12:49.864Z,0.00
2019-05-23T01:13:49.921Z,0.00
2019-05-23T01:14:49.976Z,0.00
2019-05-23T01:15:50.031Z,0.00
2019-05-23T01:16:50.088Z,0.00
2019-05-23T01:17:50.146Z,0.00
2019-05-23T01:18:50.198Z,0.00
2019-05-23T01:19:50.253Z,0.00
2019-05-23T01:20:50.330Z,0.00
2019-05-23T01:21:50.360Z,0.00
2019-05-23T01:22:50.434Z,0.00
2019-05-23T01:23:50.469Z,0.00
2019-05-23T01:24:50.525Z,0.00
2019-05-23T01:25:50.581Z,0.00
2019-05-23T01:26:50.640Z,0.00
2019-05-23T01:27:50.752Z,0.00
2019-05-23T01:28:50.745Z,0.00
2019-05-23T01:29:50.800Z,0.00
2019-05-23T01:30:50.856Z,0.00
2019-05-23T01:31:50.909Z,0.00
2019-05-23T01:32:50.964Z,0.00
2019-05-23T01:33:51.020Z,0.00
2019-05-23T01:34:51.084Z,0.00
2019-05-23T01:35:51.141Z,0.00
2019-05-23T01:36:51.187Z,0.00
2019-05-23T01:37:51.239Z,0.00
2019-05-23T01:38:51.294Z,0.00
2019-05-23T01:39:51.350Z,0.00
2019-05-23T01:40:51.404Z,0.00
2019-05-23T01:41:51.465Z,0.00
2019-05-23T01:42:51.598Z,0.00
2019-05-23T01:43:51.569Z,0.00
2019-05-23T01:44:51.625Z,0.00
2019-05-23T01:45:51.681Z,0.00
2019-05-23T01:46:51.734Z,0.00
2019-05-23T01:47:51.789Z,0.00
2019-05-23T01:48:51.843Z,0.00
2019-05-23T01:49:51.900Z,0.00
2019-05-23T01:50:51.998Z,0.00
2019-05-23T01:51:52.009Z,0.00
2019-05-23T01:52:52.063Z,0.00
2019-05-23T01:53:52.120Z,0.00
2019-05-23T01:54:52.174Z,0.00
2019-05-23T01:55:52.234Z,0.00
2019-05-23T01:56:52.289Z,0.00
2019-05-23T01:57:52.338Z,0.00
2019-05-23T01:58:52.394Z,0.00
2019-05-23T02:00:08.392Z,0.00
2019-05-23T02:00:52.505Z,0.00
2019-05-23T02:01:52.558Z,0.00
2019-05-23T02:02:52.613Z,0.00
2019-05-23T02:03:52.669Z,0.00
2019-05-23T02:04:52.723Z,0.00
2019-05-23T02:05:52.779Z,0.00
2019-05-23T02:06:52.834Z,0.00
2019-05-23T02:07:52.888Z,0.00
2019-05-23T02:08:52.942Z,0.00
2019-05-23T02:09:52.999Z,0.00
2019-05-23T02:10:53.056Z,0.00
2019-05-23T02:11:53.110Z,0.00
2019-05-23T02:12:53.163Z,0.00
2019-05-23T02:13:53.220Z,0.00
2019-05-23T02:14:53.272Z,0.00
2019-05-23T02:15:53.326Z,0.00
2019-05-23T02:16:53.382Z,0.00
2019-05-23T02:17:53.435Z,0.00
2019-05-23T02:18:53.489Z,0.00
2019-05-23T02:19:53.543Z,0.00
2019-05-23T02:20:53.610Z,0.00
2019-05-23T02:21:53.654Z,0.00
2019-05-23T02:22:53.708Z,0.00
2019-05-23T02:23:53.764Z,0.00
2019-05-23T02:24:53.825Z,0.00
2019-05-23T02:25:53.875Z,0.00
2019-05-23T02:26:53.938Z,0.00
2019-05-23T02:27:53.982Z,0.00
2019-05-23T02:28:54.036Z,0.00
2019-05-23T02:29:54.094Z,0.00
2019-05-23T02:30:54.147Z,0.00
2019-05-23T02:31:54.201Z,0.00
2019-05-23T02:32:54.256Z,0.00
2019-05-23T02:33:54.318Z,0.00
2019-05-23T02:34:54.368Z,0.00
2019-05-23T02:35:54.420Z,0.00
2019-05-23T02:36:54.474Z,0.00
2019-05-23T02:37:54.532Z,0.00
2019-05-23T02:38:54.587Z,0.00
2019-05-23T02:39:54.638Z,0.00
2019-05-23T02:40:54.693Z,0.00
2019-05-23T02:41:54.750Z,0.00
2019-05-23T02:42:54.803Z,0.00
2019-05-23T02:43:54.859Z,0.00
2019-05-23T02:44:54.913Z,0.00
2019-05-23T02:45:54.966Z,0.00
2019-05-23T02:46:55.022Z,0.00
2019-05-23T02:47:55.081Z,0.00
2019-05-23T02:48:55.131Z,0.00
2019-05-23T02:49:55.187Z,0.00
2019-05-23T02:50:55.241Z,0.00
2019-05-23T02:51:55.296Z,0.00
2019-05-23T02:52:55.351Z,0.00
2019-05-23T02:53:55.407Z,0.00
2019-05-23T02:54:55.467Z,0.00
2019-05-23T02:55:55.516Z,0.00
2019-05-23T02:56:55.570Z,0.00
2019-05-23T02:57:55.625Z,0.00
2019-05-23T02:58:55.679Z,4.00
2019-05-23T02:59:55.733Z,4.00
2019-05-23T03:00:55.914Z,4.00
2019-05-23T03:01:55.850Z,4.00
2019-05-23T03:02:55.928Z,0.00
2019-05-23T03:03:55.953Z,4.00
2019-05-23T03:04:56.008Z,4.00
2019-05-23T03:05:56.067Z,8.00
2019-05-23T03:06:56.129Z,4.00
2019-05-23T03:07:56.173Z,8.00
2019-05-23T03:08:56.230Z,4.00
2019-05-23T03:09:56.289Z,8.00
2019-05-23T03:10:56.342Z,8.00
2019-05-23T03:11:56.393Z,12.00
2019-05-23T03:12:56.447Z,12.00
2019-05-23T03:13:56.502Z,12.00
2019-05-23T03:14:56.557Z,16.00
2019-05-23T03:15:56.613Z,20.00
2019-05-23T03:16:56.666Z,20.00
2019-05-23T03:17:56.728Z,20.00
2019-05-23T03:18:56.779Z,28.00
2019-05-23T03:19:56.834Z,28.00
2019-05-23T03:20:56.887Z,36.00
2019-05-23T03:21:56.940Z,36.00
2019-05-23T03:22:56.998Z,40.00
2019-05-23T03:23:57.052Z,44.00
2019-05-23T03:24:57.107Z,52.00
2019-05-23T03:25:57.161Z,56.00
2019-05-23T03:26:57.217Z,60.00
2019-05-23T03:27:57.272Z,64.00
2019-05-23T03:28:57.326Z,72.00
2019-05-23T03:29:57.381Z,76.00
2019-05-23T03:31:25.085Z,84.00
2019-05-23T03:31:57.492Z,92.00
2019-05-23T03:32:57.548Z,100.00
2019-05-23T03:33:57.626Z,116.00
2019-05-23T03:34:57.687Z,124.00
2019-05-23T03:35:57.713Z,132.00
2019-05-23T03:36:57.775Z,144.00
2019-05-23T03:37:57.823Z,156.00
2019-05-23T03:38:57.876Z,172.00
2019-05-23T03:39:57.932Z,188.00
2019-05-23T03:40:57.986Z,204.00
2019-05-23T03:41:58.044Z,220.00
2019-05-23T03:42:58.098Z,236.00
2019-05-23T03:43:58.156Z,252.00
2019-05-23T03:44:58.206Z,268.00
2019-05-23T03:45:58.260Z,280.00
2019-05-23T03:46:58.317Z,300.00
2019-05-23T03:47:58.371Z,324.00
2019-05-23T03:48:58.508Z,348.00
2019-05-23T03:49:58.480Z,372.00
2019-05-23T03:50:58.542Z,396.00
2019-05-23T03:51:58.600Z,420.00
2019-05-23T03:52:58.644Z,440.00
2019-05-23T03:53:58.700Z,460.00
2019-05-23T03:54:58.755Z,484.00
2019-05-23T03:55:58.811Z,512.00
2019-05-23T03:56:58.867Z,536.00
2019-05-23T03:57:58.947Z,560.00
2019-05-23T03:58:58.974Z,576.00
2019-05-23T03:59:59.029Z,588.00
2019-05-23T04:00:59.085Z,608.00
2019-05-23T04:01:59.149Z,632.00
2019-05-23T04:02:59.197Z,664.00
2019-05-23T04:03:59.248Z,692.00
2019-05-23T04:04:59.302Z,716.00
2019-05-23T04:05:59.360Z,740.00
2019-05-23T04:06:59.410Z,768.00
2019-05-23T04:07:59.464Z,796.00
2019-05-23T04:08:59.525Z,828.00
2019-05-23T04:09:59.583Z,864.00
2019-05-23T04:10:59.629Z,896.00
2019-05-23T04:11:59.685Z,916.00
2019-05-23T04:12:59.735Z,928.00
2019-05-23T04:13:59.793Z,948.00
2019-05-23T04:14:59.850Z,980.00
2019-05-23T04:15:59.906Z,1004.00
2019-05-23T04:16:59.955Z,1036.00
2019-05-23T04:18:00.010Z,1076.00
2019-05-23T04:19:00.073Z,1116.00
2019-05-23T04:20:00.234Z,1120.00
2019-05-23T04:21:00.185Z,1144.00
2019-05-23T04:22:00.227Z,1188.00
2019-05-23T04:23:00.288Z,1252.00
2019-05-23T04:24:00.335Z,1328.00
2019-05-23T04:25:02.115Z,1412.00
2019-05-23T04:26:00.446Z,1488.00
2019-05-23T04:27:00.500Z,1572.00
2019-05-23T04:28:00.555Z,1608.00
2019-05-23T04:29:00.608Z,1628.00
2019-05-23T04:30:00.708Z,1652.00
2019-05-23T04:31:00.719Z,1648.00
2019-05-23T04:32:07.776Z,1684.00
2019-05-23T04:33:00.827Z,1736.00
2019-05-23T04:34:00.894Z,1804.00
2019-05-23T04:35:00.941Z,1892.00
2019-05-23T04:36:00.991Z,1964.00
2019-05-23T04:37:01.051Z,2052.00
2019-05-23T04:38:01.109Z,2176.00
2019-05-23T04:39:01.158Z,2304.00
2019-05-23T04:40:01.210Z,2376.00
2019-05-23T04:41:01.273Z,2432.00
2019-05-23T04:42:01.320Z,2440.00
2019-05-23T04:43:01.388Z,2452.00
2019-05-23T04:44:01.462Z,2504.00
2019-05-23T04:45:01.526Z,2576.00
2019-05-23T04:46:01.638Z,2668.00
2019-05-23T04:47:01.597Z,2656.00
2019-05-23T04:48:01.667Z,2632.00
2019-05-23T04:49:01.712Z,2620.00
2019-05-23T04:50:01.853Z,2640.00
2019-05-23T04:51:01.814Z,2668.00
2019-05-23T04:52:01.870Z,2688.00
2019-05-23T04:53:01.933Z,2716.00
2019-05-23T04:54:01.988Z,2780.00
2019-05-23T04:55:02.033Z,2800.00
2019-05-23T04:56:02.095Z,2752.00
2019-05-23T04:57:02.143Z,2724.00
2019-05-23T04:58:04.402Z,2736.00
2019-05-23T04:59:02.253Z,2760.00
2019-05-23T05:00:02.318Z,2744.00
2019-05-23T05:01:02.399Z,2792.00
2019-05-23T05:02:02.512Z,2904.00
2019-05-23T05:03:02.516Z,2988.00
2019-05-23T05:04:02.904Z,3052.00
2019-05-23T05:05:02.584Z,3104.00
2019-05-23T05:06:02.639Z,3260.00
2019-05-23T05:07:02.697Z,3408.00
2019-05-23T05:08:02.801Z,3556.00
2019-05-23T05:09:02.805Z,3628.00
2019-05-23T05:10:02.860Z,3616.00
2019-05-23T05:11:03.602Z,3644.00
2019-05-23T05:12:02.970Z,3804.00
2019-05-23T05:13:03.070Z,3952.00
2019-05-23T05:14:03.439Z,3924.00
2019-05-23T05:15:03.148Z,3908.00
2019-05-23T05:16:03.192Z,3868.00
2019-05-23T05:17:03.254Z,3932.00
2019-05-23T05:18:03.300Z,4040.00
2019-05-23T05:19:03.355Z,4104.00
2019-05-23T05:20:03.411Z,4288.00
2019-05-23T05:21:04.119Z,4452.00
2019-05-23T05:22:03.521Z,4516.00
2019-05-23T05:23:03.639Z,4496.00
2019-05-23T05:24:03.640Z,4552.00
2019-05-23T05:25:04.340Z,4600.00
2019-05-23T05:26:03.744Z,4504.00
2019-05-23T05:27:03.799Z,4388.00
2019-05-23T05:28:03.865Z,4432.00
2019-05-23T05:29:03.907Z,4568.00
2019-05-23T05:30:03.964Z,4812.00
2019-05-23T05:31:04.018Z,5000.00
2019-05-23T05:32:04.313Z,4996.00
2019-05-23T05:33:04.129Z,4864.00
2019-05-23T05:34:04.185Z,4916.00
2019-05-23T05:35:04.247Z,5168.00
2019-05-23T05:36:04.307Z,5628.00
2019-05-23T05:37:04.353Z,5968.00
2019-05-23T05:38:04.414Z,6164.00
2019-05-23T05:39:04.463Z,6468.00
2019-05-23T05:40:04.518Z,6556.00
2019-05-23T05:41:04.576Z,6444.00
2019-05-23T05:42:04.628Z,6348.00
2019-05-23T05:43:04.688Z,6136.00
2019-05-23T05:44:04.739Z,6084.00
2019-05-23T05:45:04.795Z,6156.00
2019-05-23T05:46:04.852Z,6336.00
2019-05-23T05:47:04.908Z,6556.00
2019-05-23T05:48:04.969Z,6712.00
2019-05-23T05:49:05.019Z,6784.00
2019-05-23T05:50:05.075Z,6972.00
2019-05-23T05:51:05.474Z,6736.00
2019-05-23T05:52:05.186Z,6456.00
2019-05-23T05:53:05.247Z,6304.00
2019-05-23T05:54:05.330Z,6404.00
2019-05-23T05:55:05.354Z,6480.00
2019-05-23T05:56:05.575Z,6276.00
2019-05-23T05:57:05.467Z,6028.00
2019-05-23T05:58:05.525Z,5752.00
2019-05-23T05:59:05.585Z,5440.00
2019-05-23T06:00:05.637Z,5136.00
2019-05-23T06:01:05.739Z,4976.00
2019-05-23T06:02:05.756Z,4980.00
2019-05-23T06:03:06.058Z,5012.00
2019-05-23T06:04:05.858Z,5080.00
2019-05-23T06:05:05.918Z,5188.00
2019-05-23T06:06:05.971Z,5280.00
2019-05-23T06:07:06.027Z,5396.00
2019-05-23T06:08:06.092Z,5484.00
2019-05-23T06:09:06.141Z,5428.00
2019-05-23T06:10:06.197Z,5396.00
2019-05-23T06:11:06.255Z,5432.00
2019-05-23T06:12:06.316Z,5500.00
2019-05-23T06:13:06.363Z,5544.00
2019-05-23T06:14:06.425Z,5664.00
2019-05-23T06:15:06.478Z,5848.00
2019-05-23T06:16:06.543Z,5876.00
2019-05-23T06:17:06.591Z,5820.00
2019-05-23T06:18:06.648Z,5904.00
2019-05-23T06:19:06.703Z,5980.00
2019-05-23T06:20:06.761Z,6176.00
2019-05-23T06:21:06.823Z,6436.00
2019-05-23T06:22:07.251Z,6244.00
2019-05-23T06:23:06.930Z,6056.00
2019-05-23T06:24:06.982Z,5944.00
2019-05-23T06:25:07.062Z,5912.00
2019-05-23T06:26:07.095Z,5824.00
2019-05-23T06:27:07.151Z,5784.00
2019-05-23T06:28:07.207Z,5792.00
2019-05-23T06:29:07.272Z,5732.00
2019-05-23T06:30:07.327Z,5760.00
2019-05-23T06:31:07.382Z,5796.00
2019-05-23T06:32:07.433Z,5764.00
2019-05-23T06:33:21.934Z,5680.00
2019-05-23T06:34:07.608Z,5632.00
2019-05-23T06:35:07.610Z,5560.00
2019-05-23T06:36:07.658Z,5524.00
2019-05-23T06:37:07.716Z,5496.00
2019-05-23T06:38:07.771Z,5464.00
2019-05-23T06:39:07.827Z,5460.00
2019-05-23T06:40:07.889Z,5476.00
2019-05-23T06:41:07.952Z,5484.00
2019-05-23T06:42:07.996Z,5488.00
2019-05-23T06:43:08.054Z,5496.00
2019-05-23T06:44:08.114Z,5520.00
2019-05-23T06:45:08.168Z,5556.00
2019-05-23T06:46:08.220Z,5596.00
2019-05-23T06:47:08.282Z,5660.00
2019-05-23T06:48:08.334Z,5732.00
2019-05-23T06:49:08.392Z,5800.00
2019-05-23T06:50:08.447Z,5900.00
2019-05-23T06:51:09.639Z,6044.00
2019-05-23T06:52:08.565Z,6204.00
2019-05-23T06:53:08.623Z,6400.00
2019-05-23T06:54:08.673Z,6592.00
2019-05-23T06:55:08.732Z,6788.00
2019-05-23T06:56:08.807Z,6988.00
2019-05-23T06:57:08.844Z,7160.00
2019-05-23T06:58:08.901Z,7304.00
2019-05-23T06:59:08.958Z,7420.00
2019-05-23T07:00:09.012Z,7480.00
2019-05-23T07:01:09.069Z,7452.00
2019-05-23T07:02:09.228Z,7372.00
2019-05-23T07:03:09.182Z,7188.00
2019-05-23T07:04:09.249Z,6956.00
2019-05-23T07:05:09.296Z,6788.00
2019-05-23T07:06:09.351Z,6564.00
2019-05-23T07:07:09.411Z,6300.00
2019-05-23T07:08:09.467Z,5968.00
2019-05-23T07:09:09.524Z,5756.00
2019-05-23T07:10:09.592Z,5624.00
2019-05-23T07:11:09.681Z,5496.00
2019-05-23T07:12:09.703Z,5460.00
2019-05-23T07:13:09.776Z,5396.00
2019-05-23T07:14:09.805Z,5416.00
2019-05-23T07:15:09.928Z,5528.00
2019-05-23T07:16:09.918Z,5736.00
2019-05-23T07:17:09.977Z,5992.00
2019-05-23T07:18:10.032Z,6272.00
2019-05-23T07:19:10.092Z,6340.00
2019-05-23T07:20:10.149Z,6396.00
2019-05-23T07:21:10.203Z,6420.00
2019-05-23T07:22:10.260Z,6648.00
2019-05-23T07:23:10.326Z,6704.00
2019-05-23T07:24:10.382Z,6896.00
2019-05-23T07:25:10.431Z,6948.00
2019-05-23T07:26:10.489Z,6976.00
2019-05-23T07:27:10.546Z,6964.00
2019-05-23T07:28:10.609Z,6956.00
2019-05-23T07:29:10.658Z,6948.00
2019-05-23T07:30:11.288Z,6956.00
2019-05-23T07:31:10.774Z,6968.00
2019-05-23T07:32:10.830Z,7004.00
2019-05-23T07:33:10.889Z,7028.00
2019-05-23T07:34:10.948Z,7044.00
2019-05-23T07:35:11.004Z,7068.00
2019-05-23T07:36:11.059Z,7084.00
2019-05-23T07:37:11.115Z,7120.00
2019-05-23T07:38:11.539Z,7164.00
2019-05-23T07:39:11.804Z,7216.00
2019-05-23T07:40:11.430Z,7268.00
2019-05-23T07:41:11.350Z,7340.00
2019-05-23T07:42:11.555Z,7416.00
2019-05-23T07:43:11.462Z,7488.00
2019-05-23T07:44:11.539Z,7528.00
2019-05-23T07:45:12.207Z,7536.00
2019-05-23T07:46:11.632Z,7524.00
2019-05-23T07:47:11.695Z,7544.00
2019-05-23T07:48:11.745Z,7584.00
2019-05-23T07:49:11.803Z,7620.00
2019-05-23T07:50:11.873Z,7656.00
2019-05-23T07:51:11.934Z,7700.00
2019-05-23T07:52:11.976Z,7756.00
2019-05-23T07:53:12.066Z,7812.00
2019-05-23T07:54:12.113Z,7872.00
2019-05-23T07:55:12.148Z,7920.00
2019-05-23T07:56:12.214Z,7972.00
2019-05-23T07:57:12.290Z,8016.00
2019-05-23T07:58:13.892Z,8040.00
2019-05-23T07:59:12.384Z,8060.00
2019-05-23T08:00:12.445Z,8072.00
2019-05-23T08:01:12.543Z,8088.00
2019-05-23T08:02:12.554Z,8104.00
2019-05-23T08:03:12.715Z,8116.00
2019-05-23T08:04:21.256Z,8112.00
2019-05-23T08:05:12.734Z,8120.00
2019-05-23T08:06:13.230Z,8116.00
2019-05-23T08:07:12.846Z,8140.00
2019-05-23T08:08:12.907Z,8160.00
2019-05-23T08:09:13.142Z,8188.00
2019-05-23T08:10:13.019Z,8248.00
2019-05-23T08:11:13.132Z,8312.00
2019-05-23T08:12:13.135Z,8404.00
2019-05-23T08:13:13.193Z,8448.00
2019-05-23T08:14:13.253Z,8488.00
2019-05-23T08:15:13.335Z,8504.00
2019-05-23T08:16:13.369Z,8508.00
2019-05-23T08:17:13.429Z,8484.00
2019-05-23T08:18:13.487Z,8508.00
2019-05-23T08:19:19.282Z,8472.00
2019-05-23T08:20:13.604Z,8484.00
2019-05-23T08:21:13.664Z,8504.00
2019-05-23T08:22:13.723Z,8540.00
2019-05-23T08:23:13.781Z,8548.00
2019-05-23T08:24:13.838Z,8504.00
2019-05-23T08:25:13.897Z,8472.00
2019-05-23T08:26:13.958Z,8448.00
2019-05-23T08:27:14.018Z,8448.00
2019-05-23T08:28:14.085Z,8460.00
2019-05-23T08:29:26.440Z,8488.00
2019-05-23T08:30:14.829Z,8484.00
2019-05-23T08:31:14.250Z,8520.00
2019-05-23T08:32:14.309Z,8512.00
2019-05-23T08:33:14.407Z,8484.00
2019-05-23T08:34:14.428Z,8496.00
2019-05-23T08:35:17.828Z,8504.00
2019-05-23T08:36:14.545Z,8520.00
2019-05-23T08:37:14.608Z,8552.00
2019-05-23T08:38:14.664Z,8584.00
2019-05-23T08:39:14.724Z,8656.00
2019-05-23T08:40:14.784Z,8724.00
2019-05-23T08:41:14.934Z,8832.00
2019-05-23T08:42:14.903Z,8932.00
2019-05-23T08:43:14.963Z,9056.00
2019-05-23T08:44:15.023Z,9172.00
2019-05-23T08:45:15.081Z,9236.00
2019-05-23T08:46:15.174Z,9332.00
2019-05-23T08:47:15.213Z,9396.00
2019-05-23T08:48:15.261Z,9460.00
2019-05-23T08:49:15.322Z,9524.00
2019-05-23T08:50:15.382Z,9604.00
2019-05-23T08:51:15.441Z,9676.00
2019-05-23T08:52:15.502Z,9724.00
2019-05-23T08:53:15.574Z,9740.00
2019-05-23T08:54:15.622Z,9840.00
2019-05-23T08:55:15.748Z,9796.00
2019-05-23T08:56:18.800Z,9860.00
2019-05-23T08:57:15.803Z,9980.00
2019-05-23T08:58:15.863Z,10116.00
2019-05-23T08:59:15.924Z,10268.00
2019-05-23T09:00:15.985Z,10444.00
2019-05-23T09:01:16.044Z,10576.00
2019-05-23T09:02:16.111Z,10604.00
2019-05-23T09:03:16.166Z,10604.00
2019-05-23T09:04:16.228Z,10560.00
2019-05-23T09:05:16.286Z,10564.00
2019-05-23T09:06:16.348Z,10636.00
2019-05-23T09:07:16.429Z,10776.00
2019-05-23T09:08:17.380Z,10920.00
2019-05-23T09:09:28.952Z,11048.00
2019-05-23T09:10:16.591Z,11132.00
2019-05-23T09:11:16.673Z,11188.00
2019-05-23T09:12:16.711Z,11288.00
2019-05-23T09:13:16.783Z,11512.00
2019-05-23T09:14:17.373Z,11776.00
2019-05-23T09:15:16.896Z,11936.00
2019-05-23T09:16:16.961Z,12076.00
2019-05-23T09:17:17.017Z,12212.00
2019-05-23T09:18:17.080Z,12296.00
2019-05-23T09:19:17.149Z,12360.00
2019-05-23T09:20:17.201Z,12548.00
2019-05-23T09:21:17.277Z,12716.00
2019-05-23T09:22:17.323Z,12932.00
2019-05-23T09:23:17.383Z,13100.00
2019-05-23T09:24:17.453Z,13388.00
2019-05-23T09:25:17.558Z,13964.00
2019-05-23T09:26:17.606Z,14548.00
2019-05-23T09:27:17.629Z,15168.00
2019-05-23T09:28:18.085Z,15980.00
2019-05-23T09:29:17.758Z,16652.00
2019-05-23T09:30:17.812Z,17188.00
2019-05-23T09:31:17.874Z,17352.00
2019-05-23T09:32:18.001Z,17248.00
2019-05-23T09:33:18.049Z,16976.00
2019-05-23T09:34:18.059Z,16796.00
2019-05-23T09:35:21.441Z,16756.00
2019-05-23T09:36:18.181Z,16908.00
2019-05-23T09:37:18.274Z,17076.00
2019-05-23T09:38:18.304Z,16708.00
2019-05-23T09:39:18.368Z,16424.00
2019-05-23T09:41:06.232Z,16728.00
2019-05-23T09:42:05.947Z,17120.00
2019-05-23T09:43:06.007Z,17524.00
2019-05-23T09:44:06.068Z,18020.00
2019-05-23T09:45:06.133Z,18624.00
2019-05-23T09:46:06.194Z,18396.00
2019-05-23T09:47:06.255Z,18720.00
2019-05-23T09:48:06.970Z,19264.00
2019-05-23T09:49:06.379Z,20064.00
2019-05-23T09:50:06.441Z,20512.00
2019-05-23T09:51:06.509Z,20192.00
2019-05-23T09:52:06.566Z,19968.00
2019-05-23T09:53:06.630Z,19712.00
2019-05-23T09:54:06.693Z,19872.00
2019-05-23T09:55:06.806Z,20256.00
2019-05-23T09:56:06.823Z,20576.00
2019-05-23T09:57:06.884Z,20768.00
2019-05-23T09:58:06.945Z,20320.00
2019-05-23T09:59:07.005Z,20608.00
2019-05-23T10:00:07.068Z,21408.00
2019-05-23T10:01:07.363Z,20960.00
2019-05-23T10:02:07.207Z,20192.00
2019-05-23T10:03:07.259Z,22400.00
2019-05-23T10:04:07.322Z,23392.00
2019-05-23T10:05:07.391Z,26144.00
2019-05-23T10:06:07.451Z,31584.00
2019-05-23T10:07:07.513Z,22880.00
2019-05-23T10:08:07.578Z,24512.00
2019-05-23T10:09:07.651Z,62528.00
2019-05-23T10:10:07.706Z,57408.00
2019-05-23T10:11:07.770Z,52320.00
2019-05-23T10:12:07.837Z,61504.00
2019-05-23T10:13:07.900Z,65120.00
2019-05-23T10:14:07.968Z,67424.00
2019-05-23T10:15:08.027Z,68512.00
2019-05-23T10:16:08.098Z,69312.00
2019-05-23T10:17:08.160Z,69184.00
2019-05-23T10:18:08.263Z,67584.00
2019-05-23T10:19:08.292Z,65984.00
2019-05-23T10:20:08.362Z,63264.00
2019-05-23T10:21:08.427Z,65472.00
2019-05-23T10:22:08.494Z,63648.00
2019-05-23T10:23:08.559Z,67904.00
2019-05-23T10:24:08.627Z,53760.00
2019-05-23T10:25:08.698Z,65824.00
2019-05-23T10:26:08.769Z,59520.00
2019-05-23T10:27:08.846Z,61216.00
2019-05-23T10:28:08.898Z,61152.00
2019-05-23T10:29:08.982Z,66112.00
2019-05-23T10:30:09.035Z,53504.00
2019-05-23T10:31:09.109Z,68896.00
2019-05-23T10:32:09.181Z,67040.00
2019-05-23T10:33:11.906Z,67328.00
2019-05-23T10:34:09.308Z,65696.00
2019-05-23T10:35:09.378Z,65792.00
2019-05-23T10:36:09.446Z,64096.00
2019-05-23T10:37:09.514Z,64672.00
2019-05-23T10:38:09.598Z,20640.00
2019-05-23T10:39:09.655Z,21920.00
2019-05-23T10:40:09.749Z,45920.00
2019-05-23T10:41:09.790Z,27424.00
2019-05-23T10:42:09.864Z,37088.00
2019-05-23T10:43:09.928Z,21248.00
2019-05-23T10:44:10.011Z,20224.00
2019-05-23T10:45:10.064Z,19296.00
2019-05-23T10:46:10.133Z,19840.00
2019-05-23T10:47:10.203Z,21888.00
2019-05-23T10:48:10.266Z,27264.00
2019-05-23T10:49:10.334Z,61984.00
2019-05-23T10:50:10.542Z,48608.00
2019-05-23T10:51:10.475Z,65568.00
2019-05-23T10:52:10.536Z,64032.00
2019-05-23T10:53:10.605Z,62400.00
2019-05-23T10:54:10.671Z,57056.00
2019-05-23T10:55:10.740Z,54304.00
2019-05-23T10:56:10.805Z,57664.00
2019-05-23T10:57:11.466Z,61888.00
2019-05-23T10:58:10.951Z,64672.00
2019-05-23T10:59:11.007Z,63968.00
2019-05-23T11:00:11.252Z,64896.00
2019-05-23T11:01:11.151Z,67200.00
2019-05-23T11:02:11.210Z,67296.00
2019-05-23T11:03:11.281Z,65856.00
2019-05-23T11:04:11.347Z,64640.00
2019-05-23T11:05:13.914Z,64768.00
2019-05-23T11:06:15.945Z,62208.00
2019-05-23T11:07:11.560Z,63392.00
2019-05-23T11:08:11.719Z,64608.00
2019-05-23T11:09:11.693Z,64224.00
2019-05-23T11:10:11.762Z,63808.00
2019-05-23T11:11:14.457Z,63712.00
2019-05-23T11:12:11.899Z,63520.00
2019-05-23T11:13:11.969Z,63232.00
2019-05-23T11:14:12.044Z,63744.00
2019-05-23T11:15:12.117Z,62784.00
2019-05-23T11:16:12.344Z,60832.00
2019-05-23T11:17:12.284Z,60352.00
2019-05-23T11:18:12.326Z,59904.00
2019-05-23T11:19:12.441Z,60576.00
2019-05-23T11:20:13.682Z,60384.00
2019-05-23T11:21:12.543Z,59744.00
2019-05-23T11:22:12.614Z,57024.00
2019-05-23T11:23:12.685Z,55872.00
2019-05-23T11:24:12.755Z,55968.00
2019-05-23T11:25:12.839Z,53920.00
2019-05-23T11:26:12.901Z,51008.00
2019-05-23T11:27:12.973Z,45792.00
2019-05-23T11:28:13.046Z,45024.00
2019-05-23T11:29:13.117Z,45504.00
2019-05-23T11:30:13.190Z,47744.00
2019-05-23T11:31:13.264Z,48320.00
2019-05-23T11:32:13.334Z,49920.00
2019-05-23T11:33:13.407Z,48416.00
2019-05-23T11:34:13.864Z,43360.00
2019-05-23T11:35:13.548Z,43648.00
2019-05-23T11:36:13.624Z,42208.00
2019-05-23T11:37:13.694Z,41760.00
2019-05-23T11:38:13.764Z,45088.00
2019-05-23T11:39:14.539Z,43872.00
2019-05-23T11:40:13.909Z,43232.00
2019-05-23T11:41:13.978Z,36960.00
2019-05-23T11:42:14.401Z,19232.00
2019-05-23T11:43:14.117Z,17952.00
2019-05-23T11:44:14.192Z,17472.00
2019-05-23T11:45:14.259Z,17072.00
2019-05-23T11:46:14.332Z,16840.00
2019-05-23T11:47:14.401Z,16868.00
2019-05-23T11:48:16.203Z,16940.00
2019-05-23T11:49:14.539Z,17504.00
2019-05-23T11:50:15.114Z,18016.00
2019-05-23T11:51:14.673Z,18432.00
2019-05-23T11:52:14.741Z,18624.00
2019-05-23T11:53:14.811Z,18976.00
2019-05-23T11:54:14.879Z,19680.00
2019-05-23T11:55:14.945Z,20832.00
2019-05-23T11:56:15.013Z,20992.00
2019-05-23T11:57:15.082Z,21216.00
2019-05-23T11:58:15.156Z,21504.00
2019-05-23T11:59:15.215Z,22048.00
2019-05-23T12:00:15.280Z,22624.00
2019-05-23T12:01:20.889Z,50656.00
2019-05-23T12:02:15.414Z,64576.00
2019-05-23T12:03:15.478Z,67488.00
2019-05-23T12:04:15.556Z,70688.00
2019-05-23T12:05:15.614Z,71040.00
2019-05-23T12:06:15.686Z,74304.00
2019-05-23T12:07:15.748Z,80224.00
2019-05-23T12:08:15.812Z,82688.00
2019-05-23T12:09:15.882Z,84224.00
2019-05-23T12:10:16.066Z,83616.00
2019-05-23T12:11:16.058Z,86944.00
2019-05-23T12:12:16.085Z,85440.00
2019-05-23T12:13:16.153Z,88128.00
2019-05-23T12:14:16.222Z,91040.00
2019-05-23T12:15:16.291Z,92896.00
2019-05-23T12:16:16.361Z,87360.00
2019-05-23T12:17:16.430Z,81376.00
2019-05-23T12:18:16.499Z,22336.00
2019-05-23T12:19:16.567Z,18976.00
2019-05-23T12:20:16.635Z,17792.00
2019-05-23T12:21:16.705Z,16480.00